createdAt,value
2023-09-23T00:01:06.331Z,99.90
2023-09-23T00:03:35.211Z,99.90
2023-09-23T00:06:03.564Z,99.90
2023-09-23T00:08:31.398Z,99.90
2023-09-23T00:10:59.206Z,99.90
2023-09-23T00:13:29.403Z,99.90
2023-09-23T00:15:57.715Z,99.90
2023-09-23T00:18:25.746Z,99.90
2023-09-23T00:20:55.780Z,99.90
2023-09-23T00:23:24.320Z,99.90
2023-09-23T00:25:52.382Z,99.90
2023-09-23T00:28:21.461Z,99.90
2023-09-23T00:30:51.451Z,99.90
2023-09-23T00:33:19.711Z,99.90
2023-09-23T00:35:48.569Z,99.90
2023-09-23T00:38:19.434Z,99.90
2023-09-23T00:40:48.167Z,99.90
2023-09-23T00:43:18.116Z,99.90
2023-09-23T00:45:49.292Z,99.90
2023-09-23T00:48:22.613Z,99.90
2023-09-23T00:50:52.600Z,99.90
2023-09-23T00:53:22.173Z,99.90
2023-09-23T00:55:56.528Z,99.90
2023-09-23T00:58:27.784Z,99.90
2023-09-23T01:00:56.843Z,99.90
2023-09-23T01:03:26.476Z,99.90
2023-09-23T01:06:06.243Z,99.90
2023-09-23T01:08:34.421Z,99.90
2023-09-23T01:11:02.744Z,99.90
2023-09-23T01:13:31.290Z,99.90
2023-09-23T01:16:00.762Z,99.90
2023-09-23T01:18:30.545Z,99.90
2023-09-23T01:21:01.789Z,99.90
2023-09-23T01:23:31.708Z,99.90
2023-09-23T01:25:59.542Z,99.90
2023-09-23T01:28:27.688Z,99.90
2023-09-23T01:30:55.513Z,99.90
2023-09-23T01:33:23.439Z,99.90
2023-09-23T01:35:51.646Z,99.90
2023-09-23T01:38:20.845Z,99.90
2023-09-23T01:40:50.137Z,99.90
2023-09-23T01:43:17.904Z,99.90
2023-09-23T01:45:45.867Z,99.90
2023-09-23T01:48:13.753Z,99.90
2023-09-23T01:50:42.710Z,99.90
2023-09-23T01:53:14.603Z,99.90
2023-09-23T01:55:42.418Z,99.90
2023-09-23T01:58:11.532Z,99.90
2023-09-23T02:00:39.718Z,99.90
2023-09-23T02:03:07.736Z,99.90
2023-09-23T02:05:35.557Z,99.90
2023-09-23T02:08:03.397Z,99.90
2023-09-23T02:10:31.297Z,99.90
2023-09-23T02:12:59.810Z,99.90
2023-09-23T02:15:29.089Z,99.90
2023-09-23T02:17:56.914Z,99.90
2023-09-23T02:20:25.864Z,99.90
2023-09-23T02:22:55.246Z,99.90
2023-09-23T02:25:25.720Z,99.90
2023-09-23T02:27:54.407Z,99.90
2023-09-23T02:30:23.019Z,99.90
2023-09-23T02:32:52.505Z,99.90
2023-09-23T02:35:21.179Z,99.90
2023-09-23T02:37:50.681Z,99.90
2023-09-23T02:40:19.475Z,99.90
2023-09-23T02:42:48.884Z,99.90
2023-09-23T02:45:18.657Z,99.90
2023-09-23T02:47:47.156Z,99.90
2023-09-23T02:50:18.649Z,99.90
2023-09-23T02:52:49.926Z,99.90
2023-09-23T02:55:20.398Z,99.90
2023-09-23T02:57:51.941Z,99.90
2023-09-23T03:00:24.571Z,99.90
2023-09-23T03:02:56.220Z,99.90
2023-09-23T03:05:30.176Z,99.90
2023-09-23T03:08:00.056Z,99.90
2023-09-23T03:10:40.232Z,99.90
2023-09-23T03:13:08.754Z,99.90
2023-09-23T03:15:45.301Z,99.90
2023-09-23T03:18:16.467Z,99.90
2023-09-23T03:20:46.197Z,99.90
2023-09-23T03:23:14.371Z,99.90
2023-09-23T03:25:49.374Z,99.90
2023-09-23T03:28:17.963Z,99.90
2023-09-23T03:30:49.528Z,99.90
2023-09-23T03:33:19.460Z,99.90
2023-09-23T03:35:49.148Z,99.90
2023-09-23T03:38:17.477Z,99.90
2023-09-23T03:40:51.317Z,99.90
2023-09-23T03:43:19.517Z,99.90
2023-09-23T03:45:48.568Z,99.90
2023-09-23T03:48:16.563Z,99.90
2023-09-23T03:50:44.412Z,99.90
2023-09-23T03:53:14.112Z,99.90
2023-09-23T03:55:42.756Z,99.90
2023-09-23T03:58:10.919Z,99.90
2023-09-23T04:00:38.833Z,99.90
2023-09-23T04:03:07.736Z,99.90
2023-09-23T04:05:35.569Z,99.90
2023-09-23T04:08:03.405Z,99.90
2023-09-23T04:10:32.590Z,99.90
2023-09-23T04:13:00.375Z,99.90
2023-09-23T04:15:28.114Z,99.90
2023-09-23T04:17:56.018Z,99.90
2023-09-23T04:20:23.936Z,99.90
2023-09-23T04:22:52.715Z,99.90
2023-09-23T04:25:22.560Z,99.90
2023-09-23T04:27:51.875Z,99.90
2023-09-23T04:30:19.728Z,99.90
2023-09-23T04:32:48.036Z,99.90
2023-09-23T04:35:16.717Z,99.90
2023-09-23T04:37:44.605Z,99.90
2023-09-23T04:40:14.288Z,99.90
2023-09-23T04:42:43.492Z,99.90
2023-09-23T04:45:13.341Z,99.90
2023-09-23T04:47:42.073Z,99.90
2023-09-23T04:50:13.456Z,99.90
2023-09-23T04:52:43.671Z,99.90
2023-09-23T04:55:12.481Z,99.90
2023-09-23T04:57:40.816Z,99.90
2023-09-23T05:00:11.600Z,99.90
2023-09-23T05:02:42.688Z,99.90
2023-09-23T05:05:13.105Z,99.90
2023-09-23T05:07:41.285Z,99.90
2023-09-23T05:10:10.247Z,99.90
2023-09-23T05:12:38.083Z,99.90
2023-09-23T05:15:06.885Z,99.90
2023-09-23T05:17:34.707Z,99.90
2023-09-23T05:20:11.468Z,99.90
2023-09-23T05:22:39.501Z,99.90
2023-09-23T05:25:09.434Z,99.90
2023-09-23T05:27:37.330Z,99.90
2023-09-23T05:30:09.195Z,99.90
2023-09-23T05:32:38.580Z,99.90
2023-09-23T05:35:11.649Z,99.90
2023-09-23T05:37:40.610Z,99.90
2023-09-23T05:40:20.012Z,99.90
2023-09-23T05:42:49.022Z,99.90
2023-09-23T05:45:17.068Z,99.90
2023-09-23T05:47:45.234Z,99.90
2023-09-23T05:50:17.444Z,99.90
2023-09-23T05:52:46.763Z,99.90
2023-09-23T05:55:15.054Z,99.90
2023-09-23T05:57:43.041Z,99.90
2023-09-23T06:00:12.894Z,99.90
2023-09-23T06:02:41.048Z,99.90
2023-09-23T06:05:09.804Z,99.90
2023-09-23T06:07:39.295Z,99.90
2023-09-23T06:10:08.029Z,99.90
2023-09-23T06:12:36.772Z,99.90
2023-09-23T06:15:06.287Z,99.90
2023-09-23T06:17:34.396Z,99.90
2023-09-23T06:20:03.451Z,99.90
2023-09-23T06:22:31.305Z,99.90
2023-09-23T06:25:00.440Z,99.90
2023-09-23T06:27:28.573Z,99.90
2023-09-23T06:29:56.530Z,99.90
2023-09-23T06:32:24.450Z,99.90
2023-09-23T06:34:52.717Z,99.90
2023-09-23T06:37:20.573Z,99.90
2023-09-23T06:39:48.394Z,99.90
2023-09-23T06:42:17.886Z,99.90
2023-09-23T06:44:46.416Z,99.90
2023-09-23T06:47:14.625Z,99.90
2023-09-23T06:49:42.467Z,99.90
2023-09-23T06:52:10.354Z,99.90
2023-09-23T06:54:38.246Z,99.90
2023-09-23T06:57:06.127Z,99.90
2023-09-23T06:59:35.300Z,99.90
2023-09-23T07:02:03.102Z,99.90
2023-09-23T07:04:31.133Z,99.90
2023-09-23T07:06:59.123Z,99.90
2023-09-23T07:09:27.113Z,99.90
2023-09-23T07:11:55.950Z,98.80
2023-09-23T07:14:23.868Z,94.70
2023-09-23T07:16:53.664Z,91.50
2023-09-23T07:19:22.018Z,89.00
2023-09-23T07:21:49.888Z,83.30
2023-09-23T07:24:17.835Z,81.60
2023-09-23T07:26:45.678Z,79.80
2023-09-23T07:29:13.553Z,80.70
2023-09-23T07:31:41.345Z,79.10
2023-09-23T07:34:10.508Z,76.90
2023-09-23T07:36:38.301Z,76.00
2023-09-23T07:39:06.222Z,77.00
2023-09-23T07:41:34.150Z,75.80
2023-09-23T07:44:01.898Z,74.00
2023-09-23T07:46:29.774Z,70.60
2023-09-23T07:48:57.879Z,68.30
2023-09-23T07:51:27.156Z,66.90
2023-09-23T07:53:55.002Z,66.50
2023-09-23T07:56:22.846Z,64.80
2023-09-23T07:58:50.707Z,64.70
2023-09-23T08:01:19.714Z,64.10
2023-09-23T08:03:49.223Z,61.90
2023-09-23T08:06:18.267Z,60.20
2023-09-23T08:08:48.741Z,59.10
2023-09-23T08:11:17.452Z,57.80
2023-09-23T08:13:46.452Z,58.20
2023-09-23T08:16:15.972Z,58.60
2023-09-23T08:18:44.904Z,58.30
2023-09-23T08:21:13.991Z,57.60
2023-09-23T08:23:42.796Z,57.00
2023-09-23T08:26:13.359Z,56.00
2023-09-23T08:28:41.928Z,55.10
2023-09-23T08:31:10.832Z,53.30
2023-09-23T08:33:38.698Z,53.00
2023-09-23T08:36:06.845Z,53.00
2023-09-23T08:38:35.004Z,53.90
2023-09-23T08:41:07.346Z,52.90
2023-09-23T08:43:40.762Z,52.10
2023-09-23T08:46:10.526Z,52.30
2023-09-23T08:48:39.839Z,51.60
2023-09-23T08:51:09.495Z,50.80
2023-09-23T08:53:40.518Z,50.40
2023-09-23T08:56:09.398Z,50.00
2023-09-23T08:58:38.638Z,50.50
2023-09-23T09:01:06.654Z,51.10
2023-09-23T09:03:34.636Z,50.40
2023-09-23T09:06:02.803Z,51.10
2023-09-23T09:08:33.140Z,49.20
2023-09-23T09:11:01.253Z,49.20
2023-09-23T09:13:32.832Z,48.20
2023-09-23T09:16:05.987Z,48.60
2023-09-23T09:18:34.014Z,48.90
2023-09-23T09:21:01.832Z,48.50
2023-09-23T09:23:33.824Z,47.80
2023-09-23T09:26:01.810Z,47.30
2023-09-23T09:28:31.403Z,47.40
2023-09-23T09:31:01.383Z,49.20
2023-09-23T09:33:30.486Z,50.40
2023-09-23T09:35:58.778Z,50.20
2023-09-23T09:38:28.085Z,49.10
2023-09-23T09:41:03.366Z,48.70
2023-09-23T09:43:34.220Z,49.40
2023-09-23T09:46:09.363Z,49.70
2023-09-23T09:48:42.327Z,49.80
2023-09-23T09:51:14.691Z,49.20
2023-09-23T09:53:43.881Z,48.80
2023-09-23T09:56:12.270Z,50.00
2023-09-23T09:58:40.769Z,50.70
2023-09-23T10:01:14.327Z,51.10
2023-09-23T10:03:44.086Z,51.60
2023-09-23T10:06:19.959Z,51.30
2023-09-23T10:08:49.183Z,50.90
2023-09-23T10:11:18.235Z,50.60
2023-09-23T10:13:47.093Z,50.60
2023-09-23T10:16:18.633Z,50.80
2023-09-23T10:18:55.630Z,51.20
2023-09-23T10:21:24.995Z,51.00
2023-09-23T10:23:53.770Z,50.60
2023-09-23T10:26:24.162Z,51.60
2023-09-23T10:28:59.349Z,53.10
2023-09-23T10:31:29.616Z,54.20
2023-09-23T10:33:57.718Z,54.40
2023-09-23T10:36:26.155Z,54.20
2023-09-23T10:38:54.781Z,53.10
2023-09-23T10:41:23.289Z,52.50
2023-09-23T10:43:54.853Z,52.50
2023-09-23T10:46:22.945Z,52.50
2023-09-23T10:48:52.315Z,52.60
2023-09-23T10:51:20.131Z,52.30
2023-09-23T10:53:51.011Z,51.80
2023-09-23T10:56:22.179Z,50.60
2023-09-23T10:58:53.012Z,50.50
2023-09-23T11:01:21.835Z,51.80
2023-09-23T11:03:50.415Z,51.20
2023-09-23T11:06:19.834Z,53.20
2023-09-23T11:08:47.864Z,54.90
2023-09-23T11:11:16.459Z,57.10
2023-09-23T11:13:44.231Z,58.50
2023-09-23T11:16:12.720Z,60.40
2023-09-23T11:18:40.684Z,61.40
2023-09-23T11:21:08.512Z,62.30
2023-09-23T11:23:37.813Z,62.60
2023-09-23T11:26:05.742Z,60.20
2023-09-23T11:28:33.704Z,56.80
2023-09-23T11:31:01.601Z,54.00
2023-09-23T11:33:29.420Z,52.40
2023-09-23T11:35:58.299Z,53.60
2023-09-23T11:38:26.238Z,54.40
2023-09-23T11:40:57.632Z,54.70
2023-09-23T11:43:26.171Z,53.80
2023-09-23T11:45:54.044Z,54.00
2023-09-23T11:48:21.863Z,55.60
2023-09-23T11:50:50.311Z,55.70
2023-09-23T11:53:19.562Z,54.20
2023-09-23T11:55:47.705Z,54.10
2023-09-23T11:58:17.720Z,54.10
2023-09-23T12:00:45.584Z,54.70
2023-09-23T12:03:13.708Z,55.00
2023-09-23T12:05:41.937Z,55.80
2023-09-23T12:08:10.954Z,55.70
2023-09-23T12:10:39.010Z,55.30
2023-09-23T12:13:08.097Z,56.00
2023-09-23T12:15:38.402Z,56.30
2023-09-23T12:18:07.019Z,56.40
2023-09-23T12:20:34.952Z,56.70
2023-09-23T12:23:03.009Z,56.40
2023-09-23T12:25:31.258Z,56.50
2023-09-23T12:27:59.174Z,56.70
2023-09-23T12:30:27.085Z,55.90
2023-09-23T12:32:56.292Z,55.20
2023-09-23T12:35:24.114Z,53.90
2023-09-23T12:37:51.908Z,52.20
2023-09-23T12:40:20.082Z,49.50
2023-09-23T12:42:47.882Z,48.20
2023-09-23T12:45:15.613Z,48.70
2023-09-23T12:47:56.073Z,49.60
2023-09-23T12:50:28.438Z,51.40
2023-09-23T12:52:56.378Z,52.90
2023-09-23T12:55:24.386Z,53.70
2023-09-23T12:57:53.887Z,54.10
2023-09-23T13:00:22.415Z,54.00
2023-09-23T13:02:51.060Z,54.00
2023-09-23T13:05:19.068Z,54.70
2023-09-23T13:07:48.278Z,54.70
2023-09-23T13:10:16.085Z,54.50
2023-09-23T13:12:45.008Z,53.50
2023-09-23T13:15:13.491Z,54.20
2023-09-23T13:17:41.559Z,53.20
2023-09-23T13:20:10.437Z,53.10
2023-09-23T13:22:38.487Z,52.20
2023-09-23T13:25:08.767Z,50.60
2023-09-23T13:27:37.139Z,49.90
2023-09-23T13:30:05.681Z,49.70
2023-09-23T13:32:36.305Z,48.40
2023-09-23T13:35:05.428Z,49.70
2023-09-23T13:37:33.272Z,50.10
2023-09-23T13:40:01.834Z,50.80
2023-09-23T13:42:31.370Z,51.50
2023-09-23T13:44:59.195Z,52.30
2023-09-23T13:47:27.445Z,53.00
2023-09-23T13:49:55.360Z,52.70
2023-09-23T13:52:23.343Z,52.20
2023-09-23T13:54:53.089Z,53.00
2023-09-23T13:57:21.424Z,51.80
2023-09-23T13:59:50.528Z,51.40
2023-09-23T14:02:19.425Z,51.40
2023-09-23T14:04:47.285Z,51.70
2023-09-23T14:07:15.098Z,52.50
2023-09-23T14:09:43.045Z,52.60
2023-09-23T14:12:10.920Z,52.90
2023-09-23T14:14:38.941Z,52.60
2023-09-23T14:17:08.117Z,51.80
2023-09-23T14:19:35.933Z,51.40
2023-09-23T14:22:03.724Z,51.80
2023-09-23T14:24:31.536Z,52.50
2023-09-23T14:26:59.436Z,53.00
2023-09-23T14:29:27.377Z,53.20
2023-09-23T14:31:55.330Z,53.80
2023-09-23T14:34:24.495Z,54.10
2023-09-23T14:36:54.030Z,54.70
2023-09-23T14:39:22.865Z,55.00
2023-09-23T14:41:50.750Z,55.90
2023-09-23T14:44:18.786Z,56.00
2023-09-23T14:46:46.853Z,56.10
2023-09-23T14:49:17.663Z,57.20
2023-09-23T14:51:46.804Z,56.60
2023-09-23T14:54:14.615Z,57.30
2023-09-23T14:56:42.497Z,57.30
2023-09-23T14:59:10.780Z,56.60
2023-09-23T15:01:39.761Z,56.80
2023-09-23T15:04:08.730Z,56.30
2023-09-23T15:06:36.557Z,56.40
2023-09-23T15:09:06.171Z,56.20
2023-09-23T15:11:34.337Z,56.50
2023-09-23T15:14:02.284Z,56.30
2023-09-23T15:16:30.930Z,56.40
2023-09-23T15:18:59.170Z,56.60
2023-09-23T15:21:27.045Z,56.40
2023-09-23T15:23:54.866Z,55.30
2023-09-23T15:26:25.170Z,54.90
2023-09-23T15:28:53.245Z,54.40
2023-09-23T15:31:21.350Z,54.40
2023-09-23T15:33:49.189Z,54.90
2023-09-23T15:36:18.923Z,54.60
2023-09-23T15:38:47.223Z,54.20
2023-09-23T15:41:15.294Z,53.50
2023-09-23T15:43:44.455Z,54.00
2023-09-23T15:46:12.858Z,54.20
2023-09-23T15:48:41.009Z,54.20
2023-09-23T15:51:10.936Z,54.30
2023-09-23T15:53:39.193Z,54.70
2023-09-23T15:56:07.988Z,55.40
2023-09-23T15:58:36.155Z,56.20
2023-09-23T16:01:05.927Z,57.10
2023-09-23T16:03:34.402Z,57.70
2023-09-23T16:06:02.911Z,58.00
2023-09-23T16:08:31.092Z,58.50
2023-09-23T16:10:58.958Z,58.80
2023-09-23T16:13:26.777Z,58.90
2023-09-23T16:15:54.595Z,59.40
2023-09-23T16:18:24.484Z,59.10
2023-09-23T16:20:52.874Z,59.60
2023-09-23T16:23:22.992Z,60.10
2023-09-23T16:25:51.222Z,61.30
2023-09-23T16:28:19.260Z,61.90
2023-09-23T16:30:47.207Z,63.80
2023-09-23T16:33:15.051Z,63.40
2023-09-23T16:35:45.100Z,63.30
2023-09-23T16:38:14.297Z,63.90
2023-09-23T16:40:42.192Z,64.50
2023-09-23T16:43:10.022Z,65.60
2023-09-23T16:45:39.015Z,65.60
2023-09-23T16:48:07.622Z,66.00
2023-09-23T16:50:35.780Z,66.70
2023-09-23T16:53:05.314Z,66.60
2023-09-23T16:55:33.345Z,67.20
2023-09-23T16:58:01.217Z,67.80
2023-09-23T17:00:29.112Z,68.40
2023-09-23T17:02:57.090Z,68.90
2023-09-23T17:05:25.169Z,69.70
2023-09-23T17:07:53.066Z,70.30
2023-09-23T17:10:22.311Z,70.90
2023-09-23T17:12:50.139Z,70.20
2023-09-23T17:15:20.302Z,70.20
2023-09-23T17:17:48.669Z,70.80
2023-09-23T17:20:16.705Z,70.80
2023-09-23T17:22:44.790Z,70.70
2023-09-23T17:25:13.190Z,70.90
2023-09-23T17:27:42.333Z,71.20
2023-09-23T17:30:11.105Z,72.40
2023-09-23T17:32:39.463Z,71.70
2023-09-23T17:35:07.624Z,72.10
2023-09-23T17:37:35.461Z,72.70
2023-09-23T17:40:04.352Z,73.00
2023-09-23T17:42:32.331Z,73.50
2023-09-23T17:45:01.528Z,73.90
2023-09-23T17:47:29.427Z,74.60
2023-09-23T17:49:57.304Z,75.00
2023-09-23T17:52:25.071Z,76.40
2023-09-23T17:54:53.217Z,76.20
2023-09-23T17:57:20.966Z,76.90
2023-09-23T17:59:48.897Z,77.50
2023-09-23T18:02:18.253Z,78.10
2023-09-23T18:04:46.116Z,78.20
2023-09-23T18:07:13.954Z,78.50
2023-09-23T18:09:43.503Z,78.80
2023-09-23T18:12:13.844Z,79.70
2023-09-23T18:14:41.693Z,78.30
2023-09-23T18:17:09.782Z,78.10
2023-09-23T18:19:39.011Z,78.10
2023-09-23T18:22:07.212Z,78.90
2023-09-23T18:24:35.139Z,79.30
2023-09-23T18:27:03.386Z,80.50
2023-09-23T18:29:32.022Z,81.30
2023-09-23T18:31:59.925Z,82.80
2023-09-23T18:34:27.795Z,83.50
2023-09-23T18:36:56.917Z,84.40
2023-09-23T18:39:24.757Z,85.20
2023-09-23T18:41:52.630Z,86.40
2023-09-23T18:44:20.492Z,87.30
2023-09-23T18:46:48.335Z,88.40
2023-09-23T18:49:16.212Z,88.60
2023-09-23T18:51:44.099Z,90.10
2023-09-23T18:54:13.257Z,90.50
2023-09-23T18:56:41.171Z,90.40
2023-09-23T18:59:09.443Z,91.30
2023-09-23T19:01:37.350Z,92.30
2023-09-23T19:04:05.585Z,92.90
2023-09-23T19:06:33.583Z,92.90
2023-09-23T19:09:01.364Z,93.60
2023-09-23T19:11:31.203Z,94.60
2023-09-23T19:14:00.622Z,94.70
2023-09-23T19:16:28.562Z,95.00
2023-09-23T19:18:56.479Z,95.80
2023-09-23T19:21:24.389Z,95.70
2023-09-23T19:23:55.206Z,97.10
2023-09-23T19:26:23.130Z,98.50
2023-09-23T19:28:52.212Z,99.90
2023-09-23T19:31:22.491Z,99.90
2023-09-23T19:33:50.399Z,99.90
2023-09-23T19:36:18.394Z,99.90
2023-09-23T19:38:46.293Z,99.90
2023-09-23T19:41:14.097Z,99.90
2023-09-23T19:43:42.019Z,99.90
2023-09-23T19:46:11.298Z,99.90
2023-09-23T19:48:39.390Z,99.90
2023-09-23T19:51:09.373Z,99.90
2023-09-23T19:53:37.398Z,99.90
2023-09-23T19:56:05.653Z,99.90
2023-09-23T19:58:33.748Z,99.90
2023-09-23T20:01:01.553Z,99.90
2023-09-23T20:03:30.955Z,99.00
2023-09-23T20:06:01.636Z,98.90
2023-09-23T20:08:29.404Z,98.70
2023-09-23T20:11:00.168Z,97.20
2023-09-23T20:13:28.318Z,97.00
2023-09-23T20:15:56.133Z,96.80
2023-09-23T20:18:24.034Z,97.20
2023-09-23T20:20:53.413Z,97.20
2023-09-23T20:23:23.494Z,96.50
2023-09-23T20:25:53.642Z,96.40
2023-09-23T20:28:21.686Z,96.30
2023-09-23T20:30:50.117Z,96.60
2023-09-23T20:33:19.664Z,97.60
2023-09-23T20:35:49.336Z,97.70
2023-09-23T20:38:18.829Z,97.60
2023-09-23T20:40:47.942Z,97.60
2023-09-23T20:43:15.821Z,97.20
2023-09-23T20:45:45.345Z,97.60
2023-09-23T20:48:13.400Z,99.00
2023-09-23T20:50:42.883Z,99.90
2023-09-23T20:53:10.828Z,99.90
2023-09-23T20:55:41.565Z,99.90
2023-09-23T20:58:09.991Z,99.90
2023-09-23T21:00:37.815Z,99.90
2023-09-23T21:03:09.320Z,99.90
2023-09-23T21:05:37.871Z,99.70
2023-09-23T21:08:06.267Z,99.90
2023-09-23T21:10:35.802Z,99.90
2023-09-23T21:13:05.148Z,99.90
2023-09-23T21:15:33.105Z,99.90
2023-09-23T21:18:02.320Z,99.90
2023-09-23T21:20:30.336Z,99.90
2023-09-23T21:23:00.330Z,99.90
2023-09-23T21:25:31.171Z,99.90
2023-09-23T21:27:59.032Z,99.90
2023-09-23T21:30:28.587Z,99.90
2023-09-23T21:32:56.512Z,99.90
2023-09-23T21:35:24.575Z,99.90
2023-09-23T21:37:52.364Z,99.90
2023-09-23T21:40:20.373Z,99.90
2023-09-23T21:42:48.160Z,99.90
2023-09-23T21:45:16.069Z,99.90
2023-09-23T21:47:45.972Z,99.90
2023-09-23T21:50:13.961Z,99.90
2023-09-23T21:52:41.843Z,99.90
2023-09-23T21:55:11.654Z,99.90
2023-09-23T21:57:39.496Z,99.90
2023-09-23T22:00:26.598Z,99.90
2023-09-23T22:02:58.276Z,99.90
2023-09-23T22:05:26.630Z,99.90
2023-09-23T22:07:55.859Z,99.90
2023-09-23T22:10:24.569Z,99.90
2023-09-23T22:12:53.990Z,99.90
2023-09-23T22:15:22.089Z,99.90
2023-09-23T22:17:50.232Z,99.90
2023-09-23T22:20:21.508Z,99.90
2023-09-23T22:22:51.096Z,99.90
2023-09-23T22:25:21.672Z,99.90
2023-09-23T22:27:51.595Z,99.90
2023-09-23T22:30:24.749Z,99.90
2023-09-23T22:32:55.557Z,99.90
2023-09-23T22:35:28.675Z,99.90
2023-09-23T22:37:57.442Z,99.90
2023-09-23T22:40:26.632Z,99.90
2023-09-23T22:42:55.911Z,99.90
2023-09-23T22:45:36.088Z,99.90
2023-09-23T22:48:08.301Z,99.90
2023-09-23T22:50:38.298Z,99.90
2023-09-23T22:53:07.013Z,99.90
2023-09-23T22:55:34.933Z,99.90
2023-09-23T22:58:03.166Z,99.90
2023-09-23T23:00:33.484Z,99.90
2023-09-23T23:03:01.878Z,99.90
2023-09-23T23:05:30.076Z,99.90
2023-09-23T23:07:59.418Z,99.90
2023-09-23T23:10:27.199Z,99.90
2023-09-23T23:12:55.599Z,99.90
2023-09-23T23:15:24.292Z,99.90
2023-09-23T23:17:52.957Z,99.90
2023-09-23T23:20:24.391Z,99.90
2023-09-23T23:22:53.137Z,99.90
2023-09-23T23:25:23.361Z,99.90
2023-09-23T23:27:51.604Z,99.90
2023-09-23T23:30:20.827Z,99.90
2023-09-23T23:32:49.520Z,99.90
2023-09-23T23:35:23.537Z,99.90
2023-09-23T23:37:52.091Z,99.90
2023-09-23T23:40:23.256Z,99.90
2023-09-23T23:42:51.534Z,99.90
2023-09-23T23:45:20.424Z,99.90
2023-09-23T23:47:48.460Z,99.90
2023-09-23T23:50:21.320Z,99.90
2023-09-23T23:52:49.809Z,99.90
2023-09-23T23:55:18.726Z,99.90
2023-09-23T23:57:48.326Z,99.90
